Time;durP1;ratioP1;P1;durP2;ratioP2;P2;SDS_P1;SDS_P2;PMS_P1;PMS_P2;Temp;Humidity;BMP_temperature;BMP_pressure;BME280_temperature;BME280_humidity;BME280_pressure;Samples;Min_cycle;Max_cycle;Signal;HPM_P1;HPM_P2
2024/04/17 00:01:32;;;;;;;2.90;2.30;;;;;;;6.32;85.29;94690.91;5435609;26;20258;-80
2024/04/17 00:03:58;;;;;;;2.50;2.20;;;;;;;6.26;85.51;94687.13;5433135;26;20236;-80
2024/04/17 00:06:23;;;;;;;3.87;2.57;;;;;;;6.26;85.80;94681.97;5426970;26;20311;-80
2024/04/17 00:08:48;;;;;;;2.40;2.20;;;;;;;6.21;85.88;94684.19;5401787;26;20235;-80
2024/04/17 00:11:14;;;;;;;3.40;2.07;;;;;;;6.14;86.14;94683.13;5397322;26;20289;-80
2024/04/17 00:13:39;;;;;;;2.83;2.17;;;;;;;6.16;85.41;94688.94;5400816;26;20244;-79
2024/04/17 00:16:05;;;;;;;2.53;2.30;;;;;;;6.27;85.44;94685.34;5432217;26;20240;-79
2024/04/17 00:18:30;;;;;;;4.27;2.53;;;;;;;6.18;85.68;94679.28;5442015;26;20922;-80
2024/04/17 00:20:56;;;;;;;3.17;2.60;;;;;;;6.07;86.29;94687.19;5402802;26;20286;-81
2024/04/17 00:23:21;;;;;;;3.00;2.70;;;;;;;6.08;86.31;94678.50;5398088;26;20239;-80
2024/04/17 00:25:46;;;;;;;3.03;2.63;;;;;;;5.86;86.99;94677.06;5411465;26;20682;-79
2024/04/17 00:28:12;;;;;;;2.23;2.10;;;;;;;6.10;86.51;94682.59;5439571;26;20322;-79
2024/04/17 00:30:38;;;;;;;3.17;2.87;;;;;;;5.92;86.28;94679.13;5403640;26;20252;-79
2024/04/17 00:33:03;;;;;;;2.60;2.40;;;;;;;6.14;86.24;94680.53;5393249;26;20244;-80
2024/04/17 00:35:29;;;;;;;2.60;2.40;;;;;;;5.99;86.66;94681.94;5401250;26;20289;-80
2024/04/17 00:37:55;;;;;;;3.00;2.70;;;;;;;5.88;87.05;94681.13;5440332;26;20234;-81
2024/04/17 00:40:20;;;;;;;3.17;2.83;;;;;;;5.99;87.45;94681.94;5408208;26;20273;-80
2024/04/17 00:42:46;;;;;;;3.37;3.07;;;;;;;6.04;86.27;94679.75;5432795;26;20286;-81
2024/04/17 00:45:11;;;;;;;3.73;2.90;;;;;;;6.11;86.51;94680.81;5399524;26;20243;-80
2024/04/17 00:47:37;;;;;;;3.97;3.27;;;;;;;6.11;86.57;94678.25;5405985;26;20252;-79
2024/04/17 00:50:02;;;;;;;3.33;3.03;;;;;;;6.10;86.57;94668.91;5437961;26;20289;-78
2024/04/17 00:52:28;;;;;;;3.20;2.90;;;;;;;6.06;86.55;94668.34;5407238;26;20281;-79
2024/04/17 00:54:53;;;;;;;3.20;2.90;;;;;;;5.95;86.93;94678.84;5448998;26;20294;-78
2024/04/17 00:57:19;;;;;;;3.50;2.93;;;;;;;6.04;86.92;94678.00;5441387;26;20278;-80
2024/04/17 00:59:45;;;;;;;2.83;2.63;;;;;;;5.89;87.38;94666.47;5405263;26;20606;-79
2024/04/17 01:02:12;;;;;;;3.87;2.90;;;;;;;5.93;87.24;94671.25;5438681;26;20724;-79
2024/04/17 01:04:37;;;;;;;3.17;2.90;;;;;;;5.84;87.32;94664.34;5437711;26;20238;-79
2024/04/17 01:07:02;;;;;;;3.43;3.13;;;;;;;5.88;86.80;94663.09;5434962;26;20296;-80
2024/04/17 01:09:28;;;;;;;3.27;2.97;;;;;;;5.96;86.82;94663.22;5447533;26;20315;-79
2024/04/17 01:11:53;;;;;;;3.20;2.90;;;;;;;5.74;87.19;94660.94;5413908;26;20334;-79
2024/04/17 01:14:18;;;;;;;2.90;2.70;;;;;;;5.81;87.20;94666.38;5434660;26;20232;-79
2024/04/17 01:16:44;;;;;;;4.03;2.77;;;;;;;5.73;87.53;94661.91;5438725;26;20271;-79
2024/04/17 01:19:09;;;;;;;2.70;2.50;;;;;;;5.86;86.97;94664.19;5429493;26;20753;-78
2024/04/17 01:21:35;;;;;;;3.70;2.77;;;;;;;5.89;86.75;94662.13;5388651;26;20260;-77
2024/04/17 01:24:01;;;;;;;3.77;2.90;;;;;;;5.91;86.88;94657.69;5399488;26;20344;-78
2024/04/17 01:26:26;;;;;;;3.07;2.60;;;;;;;5.96;86.22;94658.06;5432596;26;20239;-79
2024/04/17 01:28:51;;;;;;;3.10;2.90;;;;;;;5.82;87.01;94662.84;5407245;26;20255;-78
2024/04/17 01:31:17;;;;;;;2.60;2.40;;;;;;;5.77;87.19;94659.88;5395181;26;20277;-79
2024/04/17 01:33:42;;;;;;;3.20;3.00;;;;;;;5.86;86.97;94652.13;5444536;26;20289;-79
2024/04/17 01:36:08;;;;;;;3.17;2.93;;;;;;;5.77;87.57;94649.56;5433407;26;20724;-78
2024/04/17 01:38:33;;;;;;;2.80;2.50;;;;;;;5.87;87.16;94658.91;5432204;26;20713;-79
2024/04/17 01:40:59;;;;;;;3.43;3.17;;;;;;;5.86;87.38;94646.97;5412835;26;20247;-79
2024/04/17 01:43:25;;;;;;;3.13;2.90;;;;;;;5.87;87.47;94656.31;5439003;26;20392;-78
2024/04/17 01:45:51;;;;;;;2.80;2.60;;;;;;;5.75;87.74;94652.28;5403651;26;20243;-79
2024/04/17 01:48:16;;;;;;;3.40;2.97;;;;;;;5.61;88.30;94645.81;5438388;26;20243;-78
2024/04/17 01:50:41;;;;;;;4.93;3.33;;;;;;;5.75;88.04;94647.16;5443369;26;20243;-78
2024/04/17 01:53:07;;;;;;;3.70;3.40;;;;;;;5.61;89.00;94655.31;5441157;26;20240;-78
2024/04/17 01:55:32;;;;;;;3.60;3.30;;;;;;;5.79;88.56;94655.41;5403431;26;20255;-78
2024/04/17 01:57:57;;;;;;;3.47;3.17;;;;;;;5.83;88.04;94652.41;5442146;26;20234;-77
2024/04/17 02:00:23;;;;;;;4.47;3.10;;;;;;;5.82;87.67;94655.91;5417442;26;20238;-78
2024/04/17 02:02:48;;;;;;;2.67;2.47;;;;;;;5.79;88.30;94653.63;5439601;26;20246;-78
2024/04/17 02:05:13;;;;;;;2.27;2.17;;;;;;;5.59;88.41;94657.22;5438372;26;20268;-79
2024/04/17 02:07:39;;;;;;;3.33;2.33;;;;;;;5.70;88.24;94664.78;5404522;26;20242;-78
2024/04/17 02:10:04;;;;;;;2.57;2.37;;;;;;;5.51;88.99;94652.75;5400979;26;20243;-78
2024/04/17 02:12:29;;;;;;;3.03;2.50;;;;;;;5.75;88.32;94662.59;5404320;26;20262;-79
2024/04/17 02:14:55;;;;;;;2.50;2.30;;;;;;;5.82;87.75;94653.34;5434575;26;20297;-79
2024/04/17 02:17:20;;;;;;;2.23;2.03;;;;;;;5.80;86.99;94662.16;5434733;26;20240;-77
2024/04/17 02:19:45;;;;;;;3.10;2.60;;;;;;;5.66;87.87;94663.44;5446879;26;20313;-78
2024/04/17 02:22:11;;;;;;;2.60;2.33;;;;;;;5.77;87.76;94662.47;5447524;26;20234;-78
2024/04/17 02:24:36;;;;;;;2.67;2.20;;;;;;;5.81;87.75;94664.59;5404012;26;20244;-78
2024/04/17 02:27:01;;;;;;;3.70;2.30;;;;;;;5.61;88.37;94660.44;5434880;26;20276;-79
2024/04/17 02:29:27;;;;;;;2.47;2.10;;;;;;;5.85;87.84;94658.22;5444065;26;20286;-79
2024/04/17 02:31:52;;;;;;;2.97;2.57;;;;;;;5.84;87.97;94660.94;5441871;26;20282;-78
2024/04/17 02:34:17;;;;;;;3.33;2.73;;;;;;;5.81;88.27;94662.03;5442964;26;20250;-79
2024/04/17 02:36:43;;;;;;;3.27;2.53;;;;;;;5.72;88.81;94662.84;5401687;26;20277;-78
2024/04/17 02:39:08;;;;;;;2.83;2.63;;;;;;;5.68;89.28;94671.84;5441201;26;20243;-78
2024/04/17 02:41:33;;;;;;;2.87;2.57;;;;;;;5.82;88.30;94661.06;5430071;26;20321;-78
2024/04/17 02:43:58;;;;;;;3.33;3.00;;;;;;;5.80;88.50;94662.97;5446543;26;20291;-78
2024/04/17 02:46:24;;;;;;;2.70;2.50;;;;;;;5.68;89.18;94659.75;5425779;26;20285;-78
2024/04/17 02:48:49;;;;;;;2.93;2.40;;;;;;;5.59;88.88;94667.50;5436439;26;20235;-78
2024/04/17 02:51:14;;;;;;;2.57;2.37;;;;;;;5.61;88.99;94665.59;5407866;26;20242;-79
2024/04/17 02:53:40;;;;;;;3.50;2.40;;;;;;;5.77;89.20;94670.19;5404218;26;20230;-79
2024/04/17 02:56:06;;;;;;;2.50;2.10;;;;;;;5.74;88.52;94676.41;5427344;26;20627;-78
2024/04/17 02:58:31;;;;;;;2.20;2.10;;;;;;;5.75;88.06;94675.47;5441180;26;20254;-79
2024/04/17 03:00:56;;;;;;;1.90;1.80;;;;;;;5.81;87.90;94682.63;5446191;26;20247;-79
2024/04/17 03:03:21;;;;;;;2.13;1.27;;;;;;;5.66;87.21;94684.84;5433807;26;20238;-79
2024/04/17 03:05:47;;;;;;;2.47;1.37;;;;;;;5.65;87.05;94682.41;5436330;26;20575;-78
2024/04/17 03:08:15;;;;;;;1.30;1.13;;;;;;;5.65;87.07;94677.25;5441081;26;20242;-78
2024/04/17 03:10:40;;;;;;;1.00;0.90;;;;;;;5.56;85.95;94683.22;5450241;26;20310;-79
2024/04/17 03:13:06;;;;;;;0.80;0.80;;;;;;;5.55;86.07;94684.19;5431872;26;20236;-78
2024/04/17 03:15:34;;;;;;;0.80;0.80;;;;;;;5.47;86.06;94681.47;5433556;26;20285;-78
2024/04/17 03:17:59;;;;;;;1.40;0.90;;;;;;;5.35;86.84;94679.06;5438956;26;20234;-79
2024/04/17 03:20:24;;;;;;;1.00;0.90;;;;;;;5.31;86.39;94677.72;5450990;26;20242;-81
2024/04/17 03:22:50;;;;;;;0.90;0.90;;;;;;;5.45;86.34;94681.63;5444330;26;20247;-79
2024/04/17 03:25:15;;;;;;;2.47;1.10;;;;;;;5.32;86.58;94681.91;5439603;26;20240;-79
2024/04/17 03:27:40;;;;;;;0.77;0.77;;;;;;;5.45;86.41;94680.81;5410598;26;20246;-80
2024/04/17 03:30:09;;;;;;;1.70;0.80;;;;;;;5.39;87.05;94688.16;5433353;26;20242;-79
2024/04/17 03:32:34;;;;;;;0.73;0.73;;;;;;;5.46;86.44;94680.66;5406569;26;20239;-79
2024/04/17 03:35:00;;;;;;;1.53;1.43;;;;;;;5.50;86.36;94679.44;5404008;26;20242;-80
2024/04/17 03:37:25;;;;;;;1.60;1.50;;;;;;;5.49;86.48;94682.16;5434994;26;20284;-80
2024/04/17 03:39:50;;;;;;;2.00;1.80;;;;;;;5.55;86.84;94682.41;5411021;26;20283;-79
2024/04/17 03:42:15;;;;;;;1.87;1.63;;;;;;;5.55;86.67;94686.75;5409892;26;20629;-81
2024/04/17 03:44:41;;;;;;;2.50;2.30;;;;;;;5.61;86.44;94684.44;5401682;26;20280;-80
2024/04/17 03:47:06;;;;;;;2.50;2.30;;;;;;;5.60;85.98;94684.59;5404144;26;20273;-80
2024/04/17 03:49:31;;;;;;;2.67;2.47;;;;;;;5.62;86.29;94686.06;5433166;26;20650;-79
2024/04/17 03:51:57;;;;;;;3.30;3.00;;;;;;;5.58;86.70;94687.31;5434133;26;20261;-77
2024/04/17 03:54:22;;;;;;;2.97;2.77;;;;;;;5.63;86.74;94695.41;5444481;26;20770;-77
2024/04/17 03:56:47;;;;;;;3.10;2.80;;;;;;;5.45;87.37;94693.69;5451378;26;20604;-78
2024/04/17 03:59:13;;;;;;;3.10;2.80;;;;;;;5.41;87.65;94685.44;5448915;26;20273;-79
2024/04/17 04:01:38;;;;;;;4.17;2.80;;;;;;;5.49;87.36;94692.47;5448551;26;20238;-79
2024/04/17 04:04:03;;;;;;;3.10;2.80;;;;;;;5.54;87.77;94696.25;5453046;26;20281;-78
2024/04/17 04:06:29;;;;;;;3.00;2.70;;;;;;;5.53;88.07;94693.81;5451087;26;20234;-78
2024/04/17 04:08:54;;;;;;;2.60;2.40;;;;;;;5.50;87.66;94692.34;5455364;25;20277;-78
2024/04/17 04:11:20;;;;;;;3.77;3.47;;;;;;;5.57;87.50;94690.84;5461326;25;20277;-78
2024/04/17 04:13:45;;;;;;;6.83;5.60;;;;;;;5.63;87.91;94694.59;5447604;26;20231;-77
2024/04/17 04:16:10;;;;;;;9.27;8.07;;;;;;;5.65;88.20;94692.69;5449489;26;20271;-77
2024/04/17 04:18:36;;;;;;;9.53;8.27;;;;;;;5.53;88.08;94698.97;5449148;26;20274;-78
2024/04/17 04:21:01;;;;;;;6.37;4.80;;;;;;;5.56;88.45;94703.81;5413859;26;20235;-79
2024/04/17 04:23:26;;;;;;;4.20;3.13;;;;;;;5.17;89.75;94705.63;5445139;26;20265;-76
2024/04/17 04:25:52;;;;;;;4.13;3.30;;;;;;;5.28;90.11;94708.06;5450468;26;20234;-78
2024/04/17 04:28:17;;;;;;;4.63;4.13;;;;;;;5.36;90.02;94710.75;5423541;26;20233;-78
2024/04/17 04:30:42;;;;;;;4.80;4.33;;;;;;;5.30;89.13;94706.16;5414276;26;20247;-78
2024/04/17 04:33:08;;;;;;;5.30;4.30;;;;;;;5.37;89.05;94715.78;5436790;26;20612;-79
2024/04/17 04:35:34;;;;;;;5.60;5.10;;;;;;;5.39;89.56;94719.03;5437572;26;20308;-79
2024/04/17 04:37:59;;;;;;;5.47;4.90;;;;;;;5.04;89.67;94711.03;5438146;26;20250;-79
2024/04/17 04:40:25;;;;;;;6.87;6.27;;;;;;;5.32;89.05;94715.38;5439062;26;20348;-80
2024/04/17 04:42:50;;;;;;;8.10;7.30;;;;;;;5.51;88.73;94718.91;5434016;26;20320;-80
2024/04/17 04:45:15;;;;;;;8.87;7.97;;;;;;;5.52;88.43;94720.53;5444247;26;20238;-80
2024/04/17 04:47:41;;;;;;;10.93;8.50;;;;;;;5.45;88.89;94715.09;5439987;26;20269;-79
2024/04/17 04:50:06;;;;;;;10.60;9.50;;;;;;;5.46;89.43;94723.63;5399344;26;20277;-78
2024/04/17 04:52:31;;;;;;;9.60;7.93;;;;;;;5.31;90.22;94729.22;5443674;26;20741;-79
2024/04/17 04:54:57;;;;;;;10.67;8.77;;;;;;;5.11;90.92;94730.13;5439844;26;20320;-79
2024/04/17 04:57:22;;;;;;;11.10;9.20;;;;;;;5.33;90.11;94736.78;5432361;26;20236;-79
2024/04/17 04:59:49;;;;;;;11.07;8.67;;;;;;;5.23;90.62;94734.22;5407447;26;20397;-79
2024/04/17 05:02:14;;;;;;;10.77;8.50;;;;;;;5.25;89.55;94734.88;5443644;26;20238;-80
2024/04/17 05:04:41;;;;;;;10.33;7.97;;;;;;;5.33;88.83;94736.78;5443802;26;20222;-80
2024/04/17 05:07:06;;;;;;;9.10;7.57;;;;;;;5.26;89.80;94739.09;5432604;26;20564;-80
2024/04/17 05:09:31;;;;;;;9.93;8.03;;;;;;;5.27;90.35;94740.69;5403392;26;20261;-80
2024/04/17 05:11:56;;;;;;;9.80;7.77;;;;;;;4.95;91.07;94737.56;5453497;26;20243;-79
2024/04/17 05:14:22;;;;;;;11.40;8.63;;;;;;;5.01;91.95;94742.16;5415725;26;20240;-79
2024/04/17 05:16:47;;;;;;;11.23;8.93;;;;;;;4.91;91.91;94738.78;5408366;26;20299;-80
2024/04/17 05:19:12;;;;;;;11.63;8.83;;;;;;;5.06;91.81;94752.88;5425366;26;20811;-79
2024/04/17 05:21:38;;;;;;;11.23;9.30;;;;;;;5.02;91.35;94749.75;5448982;26;20654;-79
2024/04/17 05:24:03;;;;;;;12.07;10.20;;;;;;;5.12;91.40;94760.06;5410986;26;20247;-78
2024/04/17 05:26:29;;;;;;;11.30;9.13;;;;;;;5.12;90.73;94757.47;5437647;26;20280;-81
2024/04/17 05:28:55;;;;;;;11.70;9.90;;;;;;;5.18;91.11;94756.97;5402954;26;20242;-79
2024/04/17 05:31:21;;;;;;;14.03;10.60;;;;;;;5.06;91.26;94758.03;5432360;26;20244;-78
2024/04/17 05:33:49;;;;;;;14.33;11.47;;;;;;;4.78;93.08;94764.75;5433933;26;20670;-77
2024/04/17 05:36:14;;;;;;;13.40;11.83;;;;;;;5.03;92.57;94760.84;5399887;26;20278;-77
2024/04/17 05:38:40;;;;;;;13.10;11.60;;;;;;;5.15;92.04;94762.38;5437865;26;20243;-78
2024/04/17 05:41:05;;;;;;;13.37;11.53;;;;;;;4.93;92.77;94771.13;5436577;26;20271;-78
2024/04/17 05:43:32;;;;;;;14.30;11.40;;;;;;;5.14;93.40;94768.47;5434758;26;20251;-78
2024/04/17 05:45:57;;;;;;;15.37;12.93;;;;;;;5.06;93.39;94768.34;5437853;26;20275;-80
2024/04/17 05:48:23;;;;;;;22.90;19.67;;;;;;;5.21;92.84;94772.16;5404639;26;20272;-81
2024/04/17 05:50:48;;;;;;;25.17;18.33;;;;;;;5.16;92.76;94774.31;5425875;26;20324;-78
2024/04/17 05:53:13;;;;;;;21.60;16.70;;;;;;;5.31;92.91;94782.47;5427473;26;20299;-78
2024/04/17 05:55:39;;;;;;;17.57;13.73;;;;;;;5.20;92.19;94777.41;5402702;26;20261;-80
2024/04/17 05:58:05;;;;;;;32.70;21.93;;;;;;;5.25;91.55;94777.84;5440395;26;20235;-80
2024/04/17 06:00:31;;;;;;;20.00;15.50;;;;;;;5.38;91.57;94774.03;5444377;26;20735;-81
2024/04/17 06:02:56;;;;;;;22.43;15.77;;;;;;;5.55;90.86;94784.63;5444113;26;20342;-79
2024/04/17 06:05:21;;;;;;;34.20;12.90;;;;;;;5.50;89.99;94781.66;5439607;26;20333;-77
2024/04/17 06:07:48;;;;;;;33.20;19.63;;;;;;;5.40;88.81;94795.34;5411101;26;20236;-79
2024/04/17 06:10:13;;;;;;;11.23;9.20;;;;;;;5.47;89.08;94793.00;5429797;26;20251;-79
2024/04/17 06:12:38;;;;;;;17.40;13.07;;;;;;;5.50;89.21;94790.19;5415968;26;20238;-78
2024/04/17 06:15:04;;;;;;;15.03;11.13;;;;;;;5.53;89.05;94791.66;5436949;26;20273;-79
2024/04/17 06:17:31;;;;;;;15.67;11.73;;;;;;;5.46;88.12;94790.56;5414763;26;20774;-80
2024/04/17 06:19:56;;;;;;;14.10;11.20;;;;;;;5.57;87.54;94793.84;5433079;26;20312;-79
2024/04/17 06:22:22;;;;;;;13.63;10.40;;;;;;;5.56;88.10;94796.53;5427958;26;20250;-79
2024/04/17 06:24:47;;;;;;;12.37;9.40;;;;;;;5.64;88.52;94794.09;5443846;26;20231;-80
2024/04/17 06:27:12;;;;;;;9.80;8.80;;;;;;;5.50;89.23;94794.53;5411044;26;20289;-80
2024/04/17 06:29:38;;;;;;;11.63;10.07;;;;;;;5.42;90.46;94800.34;5407531;26;20242;-80
2024/04/17 06:32:03;;;;;;;11.17;9.00;;;;;;;5.52;90.40;94800.34;5441465;26;20242;-80
2024/04/17 06:34:28;;;;;;;16.20;10.53;;;;;;;5.26;91.58;94802.63;5447022;26;20237;-80
2024/04/17 06:36:54;;;;;;;9.20;7.03;;;;;;;5.36;90.84;94809.41;5404787;26;20250;-79
2024/04/17 06:39:20;;;;;;;7.40;6.40;;;;;;;5.37;90.89;94812.78;5432869;26;20299;-79
2024/04/17 06:41:45;;;;;;;7.60;6.13;;;;;;;4.94;89.77;94819.06;5428843;26;20251;-81
2024/04/17 06:44:14;;;;;;;7.73;6.03;;;;;;;5.06;88.51;94823.19;5427914;26;20272;-84
2024/04/17 06:46:39;;;;;;;7.30;5.80;;;;;;;5.18;88.87;94828.22;5412940;26;20253;-80
2024/04/17 06:49:05;;;;;;;9.33;6.47;;;;;;;5.00;89.33;94831.41;5408287;26;20364;-80
2024/04/17 06:51:30;;;;;;;6.27;5.20;;;;;;;5.09;88.89;94834.97;5436602;26;20264;-80
2024/04/17 06:53:55;;;;;;;5.63;4.47;;;;;;;5.00;88.60;94836.56;5440670;26;20277;-79
2024/04/17 06:56:21;;;;;;;8.50;6.07;;;;;;;4.94;88.83;94841.41;5443284;26;20245;-80
2024/04/17 06:58:46;;;;;;;7.93;4.77;;;;;;;4.83;88.70;94848.28;5435023;26;20270;-80
2024/04/17 07:01:11;;;;;;;5.20;4.30;;;;;;;4.72;88.66;94842.44;5440661;26;20252;-79
2024/04/17 07:03:37;;;;;;;5.67;4.47;;;;;;;4.89;89.34;94841.00;5380255;26;20283;-80
2024/04/17 07:06:03;;;;;;;5.63;5.07;;;;;;;4.89;88.75;94848.72;5414227;26;20742;-80
2024/04/17 07:08:28;;;;;;;4.60;4.20;;;;;;;5.10;88.67;94842.56;5437478;26;20242;-80
2024/04/17 07:10:54;;;;;;;4.57;3.83;;;;;;;4.96;88.89;94844.69;5453932;26;20268;-79
2024/04/17 07:13:19;;;;;;;5.17;4.67;;;;;;;4.92;89.52;94851.03;5452456;26;20288;-80
2024/04/17 07:15:44;;;;;;;4.17;3.77;;;;;;;5.00;89.54;94853.75;5407751;26;20251;-80
2024/04/17 07:18:10;;;;;;;4.53;3.50;;;;;;;4.61;91.05;94845.91;5439746;26;20237;-80
2024/04/17 07:20:35;;;;;;;4.47;4.07;;;;;;;4.44;90.48;94849.06;5403432;26;20247;-79
2024/04/17 07:23:00;;;;;;;3.47;3.17;;;;;;;4.46;91.37;94847.19;5421316;26;20246;-80
2024/04/17 07:25:26;;;;;;;3.67;3.37;;;;;;;4.53;90.01;94840.59;5400083;26;20243;-80
2024/04/17 07:27:51;;;;;;;3.00;2.70;;;;;;;4.40;91.35;94840.78;5443116;26;20236;-79
2024/04/17 07:30:17;;;;;;;3.27;2.97;;;;;;;4.90;90.03;94845.19;5446381;26;20253;-81
2024/04/17 07:32:42;;;;;;;3.63;3.27;;;;;;;4.57;89.23;94843.69;5446057;26;20240;-80
2024/04/17 07:35:07;;;;;;;3.40;3.10;;;;;;;4.99;89.88;94854.72;5431091;26;20261;-80
2024/04/17 07:37:33;;;;;;;10.63;8.47;;;;;;;5.06;90.08;94853.25;5436628;26;20249;-80
2024/04/17 07:39:58;;;;;;;6.10;5.50;;;;;;;5.32;89.33;94851.84;5443366;26;20366;-80
2024/04/17 07:42:24;;;;;;;11.97;10.77;;;;;;;5.44;89.07;94855.09;5437423;26;20276;-79
2024/04/17 07:44:49;;;;;;;9.40;8.43;;;;;;;5.51;88.80;94847.66;5407545;26;20250;-80
2024/04/17 07:47:14;;;;;;;10.57;7.70;;;;;;;5.29;88.91;94852.06;5429520;26;21033;-78
2024/04/17 07:49:40;;;;;;;10.53;8.20;;;;;;;5.19;90.18;94853.81;5432081;26;20308;-81
2024/04/17 07:52:05;;;;;;;12.43;9.97;;;;;;;5.37;89.75;94854.81;5444940;26;20285;-80
2024/04/17 07:54:30;;;;;;;8.70;7.20;;;;;;;5.39;90.46;94855.50;5406894;26;20276;-80
2024/04/17 07:56:56;;;;;;;7.57;6.53;;;;;;;5.67;88.80;94850.53;5435331;26;20245;-79
2024/04/17 07:59:21;;;;;;;7.60;6.80;;;;;;;5.65;88.72;94852.41;5401149;26;20300;-79
2024/04/17 08:01:46;;;;;;;5.40;4.90;;;;;;;5.61;89.02;94856.19;5411683;26;20280;-80
2024/04/17 08:04:12;;;;;;;6.27;4.50;;;;;;;5.64;88.87;94861.06;5435006;26;20258;-78
2024/04/17 08:06:37;;;;;;;5.13;4.57;;;;;;;5.67;87.76;94858.25;5434638;26;20238;-79
2024/04/17 08:09:02;;;;;;;3.27;2.97;;;;;;;5.36;86.50;94860.91;5432322;26;20586;-79
2024/04/17 08:11:34;;;;;;;5.10;4.57;;;;;;;5.55;87.14;94867.84;5444377;26;20249;-78
2024/04/17 08:14:00;;;;;;;5.00;4.50;;;;;;;5.47;88.35;94865.13;5438353;26;20238;-77
2024/04/17 08:16:25;;;;;;;5.83;4.83;;;;;;;5.72;87.43;94865.56;5435727;26;20281;-79
2024/04/17 08:18:51;;;;;;;7.90;5.87;;;;;;;5.38;89.10;94863.34;5401844;26;20257;-78
2024/04/17 08:21:16;;;;;;;6.50;5.90;;;;;;;5.71;88.37;94866.50;5430570;26;20235;-78
2024/04/17 08:23:41;;;;;;;9.70;7.43;;;;;;;5.75;89.00;94868.69;5434507;26;20716;-78
2024/04/17 08:26:07;;;;;;;9.50;8.10;;;;;;;5.50;89.38;94884.66;5400703;26;20328;-79
2024/04/17 08:28:32;;;;;;;14.97;9.70;;;;;;;5.39;89.75;94873.53;5433856;26;20227;-79
2024/04/17 08:30:59;;;;;;;12.30;9.97;;;;;;;5.39;90.62;94867.56;5446346;26;20278;-79
2024/04/17 08:33:25;;;;;;;13.33;9.70;;;;;;;5.48;90.90;94876.22;5435842;26;20264;-79
2024/04/17 08:35:50;;;;;;;10.77;9.33;;;;;;;5.41;90.68;94878.53;5422821;26;20238;-79
2024/04/17 08:38:15;;;;;;;14.07;10.17;;;;;;;5.73;90.18;94877.50;5405938;26;20242;-79
2024/04/17 08:40:41;;;;;;;10.17;9.00;;;;;;;5.54;91.00;94881.66;5406849;26;20250;-79
2024/04/17 08:43:06;;;;;;;11.37;8.77;;;;;;;5.71;90.12;94890.50;5395689;26;20266;-79
2024/04/17 08:45:34;;;;;;;13.23;9.47;;;;;;;5.28;90.58;94893.41;5421777;26;20231;-80
2024/04/17 08:48:04;;;;;;;12.40;8.27;;;;;;;4.90;92.22;94894.09;5436157;26;20268;-79
2024/04/17 08:50:30;;;;;;;12.73;8.53;;;;;;;5.29;91.15;94890.69;5429414;26;20288;-79
2024/04/17 08:53:00;;;;;;;11.60;8.37;;;;;;;5.42;90.73;94887.09;5428136;26;20285;-80
2024/04/17 08:55:27;;;;;;;13.20;9.23;;;;;;;5.24;91.96;94890.28;5401610;26;20639;-80
2024/04/17 08:57:53;;;;;;;13.60;9.30;;;;;;;5.28;91.29;94896.78;5391823;26;20283;-78
2024/04/17 09:00:21;;;;;;;13.27;9.73;;;;;;;5.30;92.10;94894.91;5390639;26;20293;-78
2024/04/17 09:02:48;;;;;;;10.83;7.83;;;;;;;5.15;91.61;94903.94;5427921;26;20369;-79
2024/04/17 09:05:14;;;;;;;9.10;6.73;;;;;;;5.09;91.68;94899.31;5404214;26;20298;-78
2024/04/17 09:07:40;;;;;;;12.27;7.97;;;;;;;5.34;91.22;94901.41;5438029;26;20239;-80
2024/04/17 09:10:07;;;;;;;11.67;7.70;;;;;;;5.34;91.17;94893.69;5413364;26;20254;-78
2024/04/17 09:12:33;;;;;;;12.00;8.33;;;;;;;5.58;89.90;94897.69;5441459;26;20242;-79
2024/04/17 09:14:58;;;;;;;13.33;9.60;;;;;;;5.67;90.46;94909.78;5408191;26;20273;-78
2024/04/17 09:17:24;;;;;;;10.50;8.80;;;;;;;5.43;91.13;94896.44;5408577;26;20716;-79
2024/04/17 09:19:49;;;;;;;12.10;9.23;;;;;;;5.66;90.12;94901.22;5393667;26;20293;-78
2024/04/17 09:22:14;;;;;;;20.03;9.87;;;;;;;5.97;89.32;94903.72;5457115;26;20269;-80
2024/04/17 09:24:40;;;;;;;14.47;10.43;;;;;;;5.92;88.90;94896.41;5401717;26;20244;-78
2024/04/17 09:27:08;;;;;;;12.80;9.60;;;;;;;6.04;88.11;94907.38;5436944;26;20297;-79
2024/04/17 09:29:33;;;;;;;15.63;9.40;;;;;;;6.09;87.79;94909.53;5406848;26;20273;-79
2024/04/17 09:31:58;;;;;;;15.47;10.10;;;;;;;5.96;87.99;94908.06;5404881;26;20235;-80
2024/04/17 09:34:24;;;;;;;41.70;25.27;;;;;;;5.96;89.02;94902.91;5419360;26;20284;-79
2024/04/17 09:36:49;;;;;;;21.97;14.67;;;;;;;6.18;87.95;94907.00;5399862;26;20728;-78
2024/04/17 09:39:14;;;;;;;15.53;13.83;;;;;;;6.09;87.46;94905.19;5430867;26;20240;-79
2024/04/17 09:41:41;;;;;;;15.53;12.67;;;;;;;6.18;87.95;94901.84;5429940;26;20247;-79
2024/04/17 09:44:12;;;;;;;15.20;10.67;;;;;;;6.43;86.97;94909.94;5425549;26;20240;-79
2024/04/17 09:46:38;;;;;;;20.17;11.40;;;;;;;6.37;86.56;94916.47;5437406;26;20289;-80
2024/04/17 09:49:12;;;;;;;15.67;10.57;;;;;;;6.45;86.82;94914.03;5430805;26;20247;-78
2024/04/17 09:51:39;;;;;;;21.13;14.13;;;;;;;6.59;85.94;94905.03;5401633;26;20245;-79
2024/04/17 09:54:09;;;;;;;22.00;14.50;;;;;;;6.53;85.91;94903.00;5399648;26;20244;-81
2024/04/17 09:56:35;;;;;;;22.43;14.07;;;;;;;6.71;85.39;94910.84;5432976;26;20751;-80
2024/04/17 09:59:02;;;;;;;15.43;10.07;;;;;;;6.66;85.12;94913.03;5395291;26;20290;-80
2024/04/17 10:01:28;;;;;;;17.17;12.10;;;;;;;6.92;84.11;94910.66;5435338;26;20238;-79
2024/04/17 10:03:54;;;;;;;16.73;10.67;;;;;;;7.03;84.43;94913.88;5404097;26;20238;-80
2024/04/17 10:06:21;;;;;;;21.37;13.50;;;;;;;7.35;83.46;94907.50;5429819;26;20282;-80
2024/04/17 10:08:47;;;;;;;16.20;10.20;;;;;;;7.12;82.41;94913.97;5404339;26;20259;-80
2024/04/17 10:11:12;;;;;;;11.63;9.43;;;;;;;7.19;81.82;94913.28;5437907;26;20752;-79
2024/04/17 10:13:39;;;;;;;12.30;9.23;;;;;;;7.53;81.30;94910.13;5410072;26;20238;-80
2024/04/17 10:16:05;;;;;;;14.60;9.97;;;;;;;7.50;80.27;94908.63;5403262;26;20333;-80
2024/04/17 10:18:30;;;;;;;14.67;10.70;;;;;;;7.46;80.82;94915.06;5406955;26;20247;-80
2024/04/17 10:20:56;;;;;;;12.27;10.33;;;;;;;7.66;77.86;94913.97;5424540;26;20294;-79
2024/04/17 10:23:24;;;;;;;12.87;9.97;;;;;;;7.71;78.03;94913.56;5397538;26;20270;-80
2024/04/17 10:25:54;;;;;;;12.93;11.20;;;;;;;8.20;77.59;94914.84;5425115;26;20271;-79
2024/04/17 10:28:21;;;;;;;12.47;9.73;;;;;;;8.31;76.49;94911.22;5431260;26;20238;-79
2024/04/17 10:30:51;;;;;;;15.50;9.40;;;;;;;8.62;75.59;94908.25;5402403;26;20239;-79
2024/04/17 10:33:29;;;;;;;14.30;8.90;;;;;;;8.73;74.71;94906.22;5431543;26;20240;-80
2024/04/17 10:35:55;;;;;;;13.47;9.83;;;;;;;8.89;74.63;94909.88;5438067;26;20276;-80
2024/04/17 10:38:29;;;;;;;15.57;9.10;;;;;;;8.82;72.26;94901.09;5403098;26;20687;-79
2024/04/17 10:40:56;;;;;;;11.93;8.23;;;;;;;9.13;73.33;94894.47;5405456;26;20294;-79
2024/04/17 10:43:25;;;;;;;12.03;7.90;;;;;;;9.33;72.80;94898.44;5439170;26;20388;-79
2024/04/17 10:46:09;;;;;;;10.10;8.53;;;;;;;9.76;71.96;94899.25;5436919;26;20323;-80
2024/04/17 10:48:47;;;;;;;9.70;8.20;;;;;;;9.74;71.58;94896.00;5403891;26;20247;-77
2024/04/17 10:51:16;;;;;;;12.13;7.67;;;;;;;9.48;70.16;94890.91;5412778;26;20239;-79
2024/04/17 10:53:46;;;;;;;14.10;9.00;;;;;;;9.80;71.29;94897.94;5378633;26;20244;-78
2024/04/17 10:56:17;;;;;;;9.33;7.90;;;;;;;9.81;69.63;94897.00;5407497;26;20265;-78
2024/04/17 10:58:43;;;;;;;10.93;8.00;;;;;;;10.12;69.05;94886.03;5431840;26;20235;-79
2024/04/17 11:01:09;;;;;;;14.93;7.77;;;;;;;10.29;69.76;94892.88;5387915;26;20318;-80
2024/04/17 11:03:34;;;;;;;14.10;8.23;;;;;;;10.28;68.51;94888.66;5430587;26;20239;-80
2024/04/17 11:06:00;;;;;;;9.23;6.60;;;;;;;10.43;66.66;94881.88;5436889;26;20261;-80
2024/04/17 11:08:25;;;;;;;16.87;11.03;;;;;;;10.04;67.55;94881.63;5424140;26;20346;-81
2024/04/17 11:10:54;;;;;;;12.37;7.53;;;;;;;9.78;69.03;94892.13;5400794;26;20246;-80
2024/04/17 11:13:19;;;;;;;11.70;7.33;;;;;;;9.19;70.50;94890.44;5420881;26;20326;-80
2024/04/17 11:15:45;;;;;;;11.13;8.67;;;;;;;9.44;70.91;94889.56;5432792;26;20744;-80
2024/04/17 11:18:10;;;;;;;12.33;8.03;;;;;;;8.56;72.68;94890.72;5433293;26;20236;-81
2024/04/17 11:20:37;;;;;;;11.73;9.67;;;;;;;9.17;71.82;94894.97;5425281;26;20248;-81
2024/04/17 11:23:06;;;;;;;10.13;7.00;;;;;;;9.20;70.90;94890.31;5432792;26;20292;-80
2024/04/17 11:25:32;;;;;;;8.83;7.20;;;;;;;9.22;70.44;94895.34;5433648;26;20319;-80
2024/04/17 11:27:57;;;;;;;11.70;8.40;;;;;;;9.26;68.24;94891.44;5439847;26;20297;-80
2024/04/17 11:30:22;;;;;;;12.77;9.43;;;;;;;9.29;67.64;94888.56;5426053;26;20242;-81